< < Back
Terminal Aerodrome Forecast


Current Version              Previous Versions:   1  2  3  4  5  6  7  8  9  

Terminal Aerodrome Forecast

232
FTUS44 KOHX 302320
TAFCSV
TAF
KCSV 302320Z 3100/3124 34007KT P6SM SKC
     FM310200 00000KT P6SM SCT250
     FM311800 36004KT P6SM OVC250=

Latest METAR

563
SAUS70 KWBC 311600 RRC
MTRCSV
METAR KCSV 311553Z AUTO 00000KT 10SM FEW033 27/17 A3005 RMK AO2 SLP153
T02670167


USA.gov is the U.S. government's official web portal to all federal, state and local government web resources and services.